createdAt,value
2022-12-12T00:04:08.948Z,1004.84
2022-12-12T00:10:26.047Z,1004.92
2022-12-12T00:16:45.969Z,1004.94
2022-12-12T00:23:08.980Z,1005.01
2022-12-12T00:29:28.994Z,1005.09
2022-12-12T00:35:51.985Z,1005.11
2022-12-12T00:42:12.061Z,1005.15
2022-12-12T00:48:35.004Z,1005.17
2022-12-12T00:54:54.995Z,1005.21
2022-12-12T01:01:18.088Z,1005.21
2022-12-12T01:07:38.022Z,1005.21
2022-12-12T01:14:01.027Z,1005.23
2022-12-12T01:20:20.982Z,1005.31
2022-12-12T01:26:44.009Z,1005.34
2022-12-12T01:33:03.967Z,1005.49
2022-12-12T01:39:26.988Z,1005.55
2022-12-12T01:45:47.036Z,1005.61
2022-12-12T01:52:09.994Z,1005.67
2022-12-12T01:58:29.970Z,1005.72
2022-12-12T02:04:53.090Z,1005.72
2022-12-12T02:11:12.965Z,1005.72
2022-12-12T02:17:36.039Z,1005.72
2022-12-12T02:23:56.063Z,1005.72
2022-12-12T02:30:18.985Z,1005.67
2022-12-12T02:36:39.034Z,1005.67
2022-12-12T02:43:02.213Z,1005.69
2022-12-12T02:49:21.967Z,1005.67
2022-12-12T02:55:45.000Z,1005.67
2022-12-12T03:02:05.018Z,1005.63
2022-12-12T03:08:28.128Z,1005.69
2022-12-12T03:14:47.998Z,1005.74
2022-12-12T03:21:11.084Z,1005.71
2022-12-12T03:27:30.966Z,1005.72
2022-12-12T03:33:54.098Z,1005.72
2022-12-12T03:40:14.001Z,1005.74
2022-12-12T03:46:37.065Z,1005.76
2022-12-12T03:52:56.975Z,1005.74
2022-12-12T03:59:24.138Z,1005.78
2022-12-12T04:17:07.495Z,1005.86
2022-12-12T04:23:26.984Z,1005.88
2022-12-12T04:29:49.990Z,1005.9
2022-12-12T04:36:09.999Z,1005.92
2022-12-12T04:42:33.050Z,1005.96
2022-12-12T04:48:53.824Z,1006.02
2022-12-12T04:55:16.142Z,1006.04
2022-12-12T05:01:36.051Z,1006.12
2022-12-12T05:07:59.079Z,1006.12
2022-12-12T05:14:19.034Z,1006.16
2022-12-12T05:20:41.971Z,1006.19
2022-12-12T05:27:01.977Z,1006.21
2022-12-12T05:33:25.006Z,1006.21
2022-12-12T05:39:45.061Z,1006.27
2022-12-12T05:46:08.005Z,1006.27
2022-12-12T05:52:28.054Z,1006.25
2022-12-12T05:58:51.041Z,1006.31
2022-12-12T06:05:11.362Z,1006.33
2022-12-12T06:11:34.055Z,1006.37
2022-12-12T06:17:53.975Z,1006.43
2022-12-12T06:24:17.002Z,1006.43
2022-12-12T06:30:37.000Z,1006.47
2022-12-12T06:36:59.978Z,1006.45
2022-12-12T06:43:20.033Z,1006.45
2022-12-12T06:49:43.081Z,1006.47
2022-12-12T06:56:03.007Z,1006.51
2022-12-12T07:02:29.831Z,1006.55
2022-12-12T07:08:46.050Z,1006.57
2022-12-12T07:15:08.984Z,1006.66
2022-12-12T07:21:28.978Z,1006.72
2022-12-12T07:27:52.007Z,1006.78
2022-12-12T07:34:11.974Z,1006.8
2022-12-12T07:40:35.021Z,1006.76
2022-12-12T07:46:55.130Z,1006.76
2022-12-12T07:53:18.075Z,1006.84
2022-12-12T07:59:37.974Z,1006.84
2022-12-12T08:06:01.008Z,1006.9
2022-12-12T08:12:21.005Z,1006.94
2022-12-12T08:18:43.981Z,1006.96
2022-12-12T08:25:05.067Z,1006.98
2022-12-12T08:31:28.076Z,1007.04
2022-12-12T08:37:47.988Z,1007.08
2022-12-12T08:44:11.010Z,1007.12
2022-12-12T08:50:30.988Z,1007.12
2022-12-12T08:56:53.993Z,1007.13
2022-12-12T09:03:14.036Z,1007.19
2022-12-12T09:09:37.072Z,1007.19
2022-12-12T09:33:01.024Z,1007.49
2022-12-12T09:39:20.988Z,1007.52
2022-12-12T09:45:44.007Z,1007.54
2022-12-12T09:52:04.002Z,1007.58
2022-12-12T09:58:27.005Z,1007.54
2022-12-12T10:04:50.865Z,1007.56
2022-12-12T10:11:10.004Z,1007.56
2022-12-12T10:17:30.054Z,1007.54
2022-12-12T10:23:52.982Z,1007.52
2022-12-12T10:30:13.494Z,1007.51
2022-12-12T10:36:36.025Z,1007.52
2022-12-12T10:42:56.058Z,1007.51
2022-12-12T10:49:19.006Z,1007.43
2022-12-12T10:55:39.004Z,1007.41
2022-12-12T11:02:10.542Z,1007.37
2022-12-12T11:08:22.131Z,1007.33
2022-12-12T11:14:44.975Z,1007.25
2022-12-12T11:21:05.080Z,1007.15
2022-12-12T11:27:28.020Z,1007.17
2022-12-12T11:33:48.005Z,1007.13
2022-12-12T11:40:10.991Z,1007.08
2022-12-12T11:46:30.997Z,1007
2022-12-12T11:52:54.032Z,1006.98
2022-12-12T11:59:14.004Z,1006.9
2022-12-12T12:05:37.060Z,1006.86
2022-12-12T12:11:56.987Z,1006.8
2022-12-12T12:18:23.662Z,1006.76
2022-12-12T12:24:40.022Z,1006.74
2022-12-12T12:31:03.266Z,1006.74
2022-12-12T12:37:23.029Z,1006.66
2022-12-12T12:43:46.021Z,1006.66
2022-12-12T12:50:11.382Z,1006.65
2022-12-12T12:56:34.000Z,1006.59
2022-12-12T13:02:54.040Z,1006.55
2022-12-12T13:09:16.980Z,1006.49
2022-12-12T13:15:37.057Z,1006.47
2022-12-12T13:22:00.047Z,1006.47
2022-12-12T13:28:19.984Z,1006.45
2022-12-12T13:34:42.996Z,1006.43
2022-12-12T13:41:03.138Z,1006.37
2022-12-12T13:47:26.238Z,1006.41
2022-12-12T13:53:46.023Z,1006.43
2022-12-12T14:00:09.036Z,1006.41
2022-12-12T14:06:29.015Z,1006.37
2022-12-12T14:12:52.033Z,1006.37
2022-12-12T14:19:12.038Z,1006.33
2022-12-12T14:25:34.991Z,1006.29
2022-12-12T14:48:58.509Z,1006.39
2022-12-12T14:55:17.986Z,1006.47
2022-12-12T15:01:40.989Z,1006.49
2022-12-12T15:08:01.039Z,1006.51
2022-12-12T15:14:24.273Z,1006.51
2022-12-12T15:20:44.003Z,1006.53
2022-12-12T15:27:07.089Z,1006.51
2022-12-12T15:33:26.990Z,1006.55
2022-12-12T15:39:50.045Z,1006.63
2022-12-12T15:46:10.067Z,1006.66
2022-12-12T15:52:33.012Z,1006.7
2022-12-12T15:58:53.013Z,1006.78
2022-12-12T16:05:16.144Z,1006.78
2022-12-12T16:11:35.980Z,1006.78
2022-12-12T16:17:59.101Z,1006.78
2022-12-12T16:24:19.030Z,1006.84
2022-12-12T16:30:41.981Z,1006.84
2022-12-12T16:37:02.036Z,1006.88
2022-12-12T16:43:25.019Z,1006.98
2022-12-12T16:49:45.010Z,1007
2022-12-12T16:56:08.006Z,1006.98
2022-12-12T17:02:28.151Z,1007
2022-12-12T17:08:50.989Z,1007
2022-12-12T17:15:11.001Z,1007.02
2022-12-12T17:21:34.027Z,1006.98
2022-12-12T17:27:53.990Z,1006.96
2022-12-12T17:34:17.083Z,1006.96
2022-12-12T17:40:37.030Z,1006.9
2022-12-12T17:47:00.018Z,1006.94
2022-12-12T17:53:19.981Z,1006.96
2022-12-12T17:59:42.998Z,1007
2022-12-12T18:06:03.015Z,1007
2022-12-12T18:12:25.988Z,1007
2022-12-12T18:18:46.097Z,1007
2022-12-12T18:25:08.987Z,1007
2022-12-12T18:31:29.125Z,1006.96
2022-12-12T18:37:52.047Z,1006.98
2022-12-12T18:44:11.981Z,1006.98
2022-12-12T18:50:35.032Z,1007
2022-12-12T18:56:55.076Z,1007.06
2022-12-12T19:03:17.972Z,1007.08
2022-12-12T19:09:37.971Z,1007.04
2022-12-12T19:16:01.017Z,1007.04
2022-12-12T19:22:47.338Z,1007.08
2022-12-12T19:28:44.069Z,1007.06
2022-12-12T19:51:50.112Z,1007.12
2022-12-12T19:58:10.024Z,1007.13
2022-12-12T20:04:32.990Z,1007.15
2022-12-12T20:10:53.067Z,1007.21
2022-12-12T20:17:16.083Z,1007.19
2022-12-12T20:23:35.971Z,1007.19
2022-12-12T20:29:59.031Z,1007.15
2022-12-12T20:36:19.034Z,1007.15
2022-12-12T20:42:41.975Z,1007.15
2022-12-12T20:49:02.099Z,1007.15
2022-12-12T20:55:24.981Z,1007.13
2022-12-12T21:01:45.108Z,1007.17
2022-12-12T21:08:08.210Z,1007.21
2022-12-12T21:14:28.018Z,1007.21
2022-12-12T21:20:50.975Z,1007.23
2022-12-12T21:27:11.006Z,1007.25
2022-12-12T21:33:34.056Z,1007.27
2022-12-12T21:39:53.984Z,1007.25
2022-12-12T21:46:18.340Z,1007.25
2022-12-12T21:52:37.971Z,1007.27
2022-12-12T21:59:03.133Z,1007.25
2022-12-12T22:05:23.022Z,1007.23
2022-12-12T22:11:49.343Z,1007.23
2022-12-12T22:18:05.963Z,1007.19
2022-12-12T22:24:29.019Z,1007.21
2022-12-12T22:30:48.981Z,1007.23
2022-12-12T22:37:11.971Z,1007.21
2022-12-12T22:43:32.088Z,1007.21
2022-12-12T22:49:55.032Z,1007.19
2022-12-12T22:56:15.122Z,1007.12
2022-12-12T23:20:33.044Z,1006.9
2022-12-12T23:26:52.979Z,1006.86
2022-12-12T23:33:16.026Z,1006.82
2022-12-12T23:39:36.058Z,1006.8
2022-12-12T23:45:59.041Z,1006.74
2022-12-12T23:52:19.002Z,1006.74
2022-12-12T23:58:42.120Z,1006.74
